< < Back
Terminal Aerodrome Forecast


Current Version              Previous Versions:   1  2  3  4  5  6  7  8  9  

Terminal Aerodrome Forecast

418
FTUS42 KCHS 292120 AAA
TAFSAV
TAF AMD
KSAV 292120Z 2921/3018 07009KT P6SM SCT025 BKN120
     FM300200 05003KT P6SM VCSH SCT015 BKN040
     FM301400 10009KT P6SM VCSH SCT025 BKN035=

Latest METAR

593
SAUS80 KWBC 292300
MTRSAV
METAR KSAV 292253Z 08007KT 10SM FEW028 SCT120 BKN250 27/21 A3010 RMK AO2
SLP190 T02670206


USA.gov is the U.S. government's official web portal to all federal, state and local government web resources and services.